Here is the Quick Look data you requested

The Data originates at the National Weather Service, and is made available here by the UAlbany Department of Atmospheric and Environmental Sciences

Surface Observations

K40B 271516Z AUTO VRB03KT 14/11 A2998 RMK AO1 SLP161 T01400105 57006 P0002 60003
K8B0 271455Z AUTO 26005KT 10SM BKN090 17/09 A3000 RMK AO2=
KAUG 271453Z AUTO 21004KT 10SM CLR 19/12 A2999 RMK AO2 SLP154 T01940117 50000=
KBGR 271453Z 19008KT 10SM BKN110 BKN200 21/13 A2998 RMK AO2 SLP150 T02060128
 56004=
KBHB 271456Z AUTO 22010KT 10SM CLR 21/11 A3000 RMK AO2 SLP162 T02060111 57003 $=
KCAR 271454Z AUTO 19004KT 10SM BKN065 OVC095 17/09 A2999 RMK AO2 SLP158
 T01720094 55006=
KFVE 271453Z AUTO 14008KT 110V170 10SM CLR 17/06 A2998 RMK AO2 SLP152 T01720061
 58011=
KGNR 271456Z AUTO VRB04KT 18/11 A2996 RMK AO1 SLP149 T01780106 57004=
KHUL 271453Z AUTO 16004KT 10SM FEW060 21/11 A2996 RMK AO2 SLP146 T02110106
 58014 TSNO=
KIWI 271453Z AUTO 16005KT 10SM CLR 21/14 A3001 RMK AO2 SLP161 T02060139 51002=
KIZG 271454Z AUTO VRB04KT 10SM CLR 19/12 A2999 RMK AO2 SLP156 T01940117 58002=
KLEW 271456Z AUTO 00000KT 10SM 22/11 A2998 RMK AO2 SLPNO 6//// T02220106=
KMLT 271453Z AUTO VRB04KT 10SM BKN095 20/11 A2998 RMK AO2 SLP155 T02000111
 58008 TSNO=
KPQI 271456Z AUTO 25003KT 10SM -RA FEW046 BKN060 OVC075 15/11 A3000 RMK AO2
 RAB27 SLP203 P0004 60004 T01500106 55005=
KPWM 271451Z 18007KT 160V220 10SM FEW120 OVC200 21/12 A2999 RMK AO2 SLP156
 T02110122 58001=
KRKD 271456Z AUTO 19005KT 10SM BKN110 18/13 A3001 RMK AO2 SLP162 T01830133
 53005=
KSFM 271456Z AUTO 22006KT 10SM BKN080 21/13 A3001 RMK AO2 SLP170 T02060128
 50003=
KWVL 271456Z AUTO 00000KT 10SM CLR 20/13 A2996 RMK AO2 SLP171 T02000133 58001=